Time;durP1;ratioP1;P1;durP2;ratioP2;P2;SDS_P1;SDS_P2;PMS_P1;PMS_P2;Temp;Humidity;BMP_temperature;BMP_pressure;BME280_temperature;BME280_humidity;BME280_pressure;Samples;Min_cycle;Max_cycle;Signal;HPM_P1;HPM_P2
2022/09/08 00:00:38;;;;;;;4.63;1.73;;;25.20;55.30;;;;;;4957314;28;87912;-86
2022/09/08 00:03:06;;;;;;;3.78;1.73;;;25.20;56.10;;;;;;4928910;28;87174;-85
2022/09/08 00:05:38;;;;;;;2.80;1.70;;;25.20;55.40;;;;;;4927248;28;90173;-85
2022/09/08 00:08:04;;;;;;;1.23;1.13;;;25.20;55.30;;;;;;4920680;28;88010;-85
2022/09/08 00:10:30;;;;;;;2.67;1.40;;;25.20;55.30;;;;;;4960232;28;86986;-85
2022/09/08 00:12:56;;;;;;;2.13;1.23;;;25.20;55.30;;;;;;4930980;28;89220;-85
2022/09/08 00:15:23;;;;;;;2.97;1.35;;;25.20;55.30;;;;;;4931903;28;88336;-85
2022/09/08 00:17:48;;;;;;;1.92;1.17;;;25.20;55.30;;;;;;4931852;28;87794;-85
2022/09/08 00:20:14;;;;;;;2.22;1.25;;;25.30;55.30;;;;;;4957615;28;88683;-86
2022/09/08 00:22:41;;;;;;;1.50;1.13;;;25.30;55.10;;;;;;4956632;28;87338;-86
2022/09/08 00:25:07;;;;;;;3.88;1.33;;;25.30;55.30;;;;;;4932312;28;89413;-85
2022/09/08 00:27:33;;;;;;;3.13;1.40;;;25.30;55.30;;;;;;4930744;28;89296;-85
2022/09/08 00:29:58;;;;;;;2.70;1.42;;;25.30;55.60;;;;;;4929969;28;87348;-86
2022/09/08 00:32:24;;;;;;;5.63;1.48;;;25.20;55.60;;;;;;4932495;28;86993;-85
2022/09/08 00:34:50;;;;;;;4.10;1.85;;;25.20;55.70;;;;;;4932752;28;88525;-85
2022/09/08 00:37:16;;;;;;;2.63;1.90;;;25.20;55.70;;;;;;4931288;28;88337;-86
2022/09/08 00:39:42;;;;;;;10.45;1.50;;;25.20;55.80;;;;;;4961744;28;87563;-86
2022/09/08 00:42:07;;;;;;;3.00;1.55;;;25.20;55.70;;;;;;4932631;28;87222;-85
2022/09/08 00:44:50;;;;;;;2.10;1.20;;;25.20;55.70;;;;;;4946281;28;90240;-86
2022/09/08 00:47:28;;;;;;;3.15;1.15;;;25.20;55.70;;;;;;4930661;28;88652;-85
2022/09/08 00:50:06;;;;;;;6.13;1.40;;;25.20;55.80;;;;;;4930274;28;88585;-85
2022/09/08 00:52:41;;;;;;;3.35;1.70;;;25.20;55.90;;;;;;4931196;28;87621;-85
2022/09/08 00:55:09;;;;;;;2.67;1.52;;;25.20;55.80;;;;;;4962315;28;92231;-85
2022/09/08 00:57:35;;;;;;;4.13;1.48;;;25.20;55.90;;;;;;4928737;28;91374;-86
2022/09/08 01:00:02;;;;;;;5.75;1.55;;;25.20;55.90;;;;;;4962158;28;87936;-85
2022/09/08 01:02:28;;;;;;;4.25;1.95;;;25.20;56.10;;;;;;4930335;28;87108;-85
2022/09/08 01:05:08;;;;;;;2.50;1.30;;;25.20;56.00;;;;;;4931325;28;88427;-85
2022/09/08 01:12:43;;;;;;;1.52;1.08;;;25.20;56.10;;;;;;4931412;28;87394;-85
2022/09/08 01:14:10;;;;;;;3.67;1.40;;;25.20;56.10;;;;;;4930989;28;91913;-85
2022/09/08 01:16:42;;;;;;;3.72;1.70;;;25.20;56.10;;;;;;4931272;28;89602;-86
2022/09/08 01:19:28;;;;;;;3.45;1.17;;;25.20;56.20;;;;;;4931606;28;89356;-85
2022/09/08 01:22:03;;;;;;;2.95;0.98;;;25.20;56.10;;;;;;4931274;28;87599;-85
2022/09/08 01:24:52;;;;;;;2.45;1.10;;;25.20;56.20;;;;;;4955614;28;90557;-85
2022/09/08 01:27:18;;;;;;;;;;;25.20;56.20;;;;;;4931493;28;87730;-85
2022/09/08 01:29:45;;;;;;;3.00;1.40;;;25.10;56.10;;;;;;4931970;28;88426;-85
2022/09/08 01:32:13;;;;;;;1.80;1.30;;;25.10;56.20;;;;;;4931531;28;87339;-85
2022/09/08 01:34:44;;;;;;;2.03;1.27;;;25.10;56.30;;;;;;4933200;28;87426;-85
2022/09/08 01:37:10;;;;;;;2.35;1.10;;;25.10;56.30;;;;;;4936013;28;91339;-85
2022/09/08 01:39:36;;;;;;;1.88;1.45;;;25.10;56.40;;;;;;4930311;28;87951;-85
2022/09/08 01:42:02;;;;;;;1.77;1.30;;;25.10;56.40;;;;;;4929747;28;90658;-85
2022/09/08 01:44:28;;;;;;;2.50;1.40;;;25.10;56.40;;;;;;4928616;28;89637;-84
2022/09/08 01:46:54;;;;;;;1.90;1.08;;;25.10;56.40;;;;;;4930310;28;87655;-85
2022/09/08 01:49:20;;;;;;;2.63;1.30;;;25.10;56.40;;;;;;4931101;28;87835;-85
2022/09/08 01:51:45;;;;;;;1.40;1.20;;;25.20;56.60;;;;;;4932860;28;87488;-85
2022/09/08 01:54:11;;;;;;;1.85;1.30;;;25.10;56.60;;;;;;4929792;28;86828;-86
2022/09/08 01:56:36;;;;;;;2.55;1.23;;;25.20;56.60;;;;;;4930666;28;96029;-85
2022/09/08 01:59:02;;;;;;;1.58;1.00;;;25.10;56.40;;;;;;4931521;28;87886;-85
2022/09/08 02:01:28;;;;;;;1.77;1.40;;;25.10;56.50;;;;;;4931165;28;86920;-85
2022/09/08 02:03:54;;;;;;;1.48;1.20;;;25.10;56.60;;;;;;4928737;28;87440;-85
2022/09/08 02:06:20;;;;;;;2.17;1.30;;;25.10;56.50;;;;;;4930913;28;89532;-85
2022/09/08 02:08:52;;;;;;;1.23;1.05;;;25.10;57.10;;;;;;4928004;28;87048;-85
2022/09/08 02:11:18;;;;;;;1.30;0.90;;;25.10;56.50;;;;;;4928925;28;87535;-85
2022/09/08 02:13:44;;;;;;;2.03;1.20;;;25.10;56.40;;;;;;4928868;28;87187;-85
2022/09/08 02:16:11;;;;;;;1.42;1.08;;;25.10;56.40;;;;;;4928780;28;88605;-85
2022/09/08 02:18:41;;;;;;;1.77;1.23;;;25.10;56.40;;;;;;4927245;28;95268;-85
2022/09/08 02:21:18;;;;;;;3.13;1.30;;;25.10;56.50;;;;;;4928884;28;86948;-85
2022/09/08 02:23:46;;;;;;;2.05;1.10;;;25.10;56.50;;;;;;4928726;28;86286;-85
2022/09/08 02:26:24;;;;;;;2.22;1.08;;;25.10;56.50;;;;;;4928627;28;91301;-85
2022/09/08 02:28:51;;;;;;;3.00;1.48;;;25.10;56.50;;;;;;4929409;28;87883;-85
2022/09/08 02:31:18;;;;;;;1.50;0.90;;;25.10;56.50;;;;;;4929941;28;88994;-85
2022/09/08 02:33:43;;;;;;;1.85;1.33;;;25.10;56.60;;;;;;4928978;28;87374;-85
2022/09/08 02:36:09;;;;;;;2.28;1.15;;;25.10;56.50;;;;;;4929914;28;87399;-85
2022/09/08 02:38:35;;;;;;;1.63;1.00;;;25.10;56.40;;;;;;4929775;28;88204;-85
2022/09/08 02:41:01;;;;;;;3.70;1.17;;;25.00;56.50;;;;;;4929737;28;87640;-85
2022/09/08 02:43:28;;;;;;;1.23;1.05;;;25.00;56.40;;;;;;4931750;28;87581;-85
2022/09/08 02:45:54;;;;;;;1.90;1.10;;;25.10;56.40;;;;;;4929590;28;88622;-85
2022/09/08 02:48:20;;;;;;;2.75;1.10;;;25.10;56.40;;;;;;4928539;28;88310;-85
2022/09/08 02:50:45;;;;;;;1.70;1.27;;;25.10;56.50;;;;;;4928650;28;87334;-85
2022/09/08 02:53:11;;;;;;;1.80;0.93;;;25.10;56.50;;;;;;4924468;28;86809;-85
2022/09/08 02:55:41;;;;;;;1.30;1.05;;;25.10;56.50;;;;;;4955035;28;89519;-85
2022/09/08 02:58:07;;;;;;;1.67;1.10;;;25.10;56.40;;;;;;4926544;28;90026;-85
2022/09/08 03:00:35;;;;;;;2.10;1.20;;;25.10;56.50;;;;;;4930881;28;87664;-85
2022/09/08 03:03:00;;;;;;;1.85;1.20;;;25.00;56.30;;;;;;4929252;28;87358;-85
2022/09/08 03:05:27;;;;;;;3.00;1.27;;;25.00;56.30;;;;;;4927244;28;88306;-85
2022/09/08 03:07:53;;;;;;;1.10;0.98;;;25.10;56.60;;;;;;4950983;28;87930;-84
2022/09/08 03:10:23;;;;;;;3.38;1.52;;;25.00;56.50;;;;;;4927709;28;87457;-85
2022/09/08 03:12:55;;;;;;;1.67;1.10;;;25.00;56.50;;;;;;4959720;28;90787;-85
2022/09/08 03:15:23;;;;;;;1.90;1.20;;;25.00;56.50;;;;;;4927255;28;92036;-85
2022/09/08 03:17:49;;;;;;;1.27;1.13;;;25.00;56.40;;;;;;4958527;28;91443;-85
2022/09/08 03:20:15;;;;;;;1.67;1.15;;;25.00;56.50;;;;;;4928762;28;88158;-85
2022/09/08 03:22:41;;;;;;;1.33;1.10;;;25.00;56.40;;;;;;4960279;28;88493;-85
2022/09/08 03:25:07;;;;;;;1.73;1.00;;;25.00;56.30;;;;;;4926370;28;91962;-85
2022/09/08 03:27:33;;;;;;;1.67;1.00;;;25.00;56.30;;;;;;4929247;28;87176;-85
2022/09/08 03:29:58;;;;;;;1.08;0.98;;;25.00;56.40;;;;;;4930375;28;87437;-85
2022/09/08 03:32:24;;;;;;;1.60;1.15;;;25.00;56.40;;;;;;4928191;28;86989;-85
2022/09/08 03:34:50;;;;;;;1.83;1.17;;;25.00;56.30;;;;;;4928891;28;88672;-84
2022/09/08 03:37:15;;;;;;;1.70;1.08;;;25.00;56.30;;;;;;4958744;28;87032;-85
2022/09/08 03:39:41;;;;;;;1.30;1.05;;;25.00;56.50;;;;;;4928214;28;87371;-85
2022/09/08 03:42:07;;;;;;;1.85;1.08;;;25.00;56.40;;;;;;4958054;28;89852;-85
2022/09/08 03:44:33;;;;;;;3.08;1.20;;;25.00;56.50;;;;;;4930728;28;92812;-85
2022/09/08 03:46:59;;;;;;;1.88;1.30;;;25.00;56.40;;;;;;4963812;28;91150;-85
2022/09/08 03:49:25;;;;;;;0.93;0.82;;;24.90;56.40;;;;;;4962992;28;86898;-85
2022/09/08 03:51:51;;;;;;;1.90;1.10;;;24.90;56.50;;;;;;4931894;28;87640;-85
2022/09/08 03:57:03;;;;;;;1.95;1.17;;;24.90;56.50;;;;;;4932410;28;87658;-85
2022/09/08 03:59:29;;;;;;;1.15;1.05;;;24.90;56.50;;;;;;4930538;28;87244;-85
2022/09/08 04:01:55;;;;;;;1.60;1.10;;;24.90;56.60;;;;;;4933360;28;86870;-85
2022/09/08 04:04:24;;;;;;;1.85;1.40;;;24.90;56.70;;;;;;4963049;28;91329;-85
2022/09/08 04:06:50;;;;;;;1.23;0.90;;;24.90;56.50;;;;;;4930464;28;91154;-85
2022/09/08 04:09:16;;;;;;;2.05;1.20;;;24.90;56.60;;;;;;4931612;28;87863;-85
2022/09/08 04:11:42;;;;;;;3.53;1.20;;;24.90;56.70;;;;;;4931287;28;87290;-85
2022/09/08 04:14:08;;;;;;;1.52;0.90;;;24.90;56.80;;;;;;4930800;28;87709;-85
2022/09/08 04:16:33;;;;;;;1.50;1.10;;;24.90;56.70;;;;;;4931767;28;88157;-85
2022/09/08 04:18:59;;;;;;;1.38;1.05;;;24.90;56.70;;;;;;4932967;28;87064;-85
2022/09/08 04:21:25;;;;;;;1.60;1.13;;;24.90;56.60;;;;;;4931331;28;86855;-84
2022/09/08 04:23:50;;;;;;;1.20;1.00;;;24.90;56.50;;;;;;4931824;28;88445;-84
2022/09/08 04:26:16;;;;;;;1.63;1.00;;;24.90;56.70;;;;;;4931228;28;87262;-85
2022/09/08 04:28:42;;;;;;;1.60;1.00;;;24.90;56.70;;;;;;4931975;28;86834;-84
2022/09/08 04:31:11;;;;;;;1.20;1.00;;;24.90;56.70;;;;;;4931867;28;87113;-84
2022/09/08 04:33:38;;;;;;;1.75;1.05;;;24.90;56.60;;;;;;4930544;28;89684;-85
2022/09/08 04:36:09;;;;;;;1.73;1.08;;;24.90;56.70;;;;;;4933537;28;88171;-85
2022/09/08 04:38:34;;;;;;;1.50;1.10;;;24.90;56.80;;;;;;4931710;28;87214;-84
2022/09/08 04:41:05;;;;;;;1.30;0.95;;;24.90;56.80;;;;;;4931628;28;87280;-85
2022/09/08 04:43:31;;;;;;;1.52;1.02;;;24.90;56.80;;;;;;4929917;28;87046;-85
2022/09/08 04:46:09;;;;;;;1.45;0.98;;;24.90;56.70;;;;;;4946968;28;89409;-85
2022/09/08 04:48:36;;;;;;;1.52;1.00;;;24.90;56.70;;;;;;4948149;28;87110;-85
2022/09/08 04:51:03;;;;;;;1.17;0.90;;;24.90;56.80;;;;;;4948858;28;87505;-84
2022/09/08 04:53:31;;;;;;;1.67;1.02;;;24.90;56.60;;;;;;4949226;28;90099;-85
2022/09/08 04:55:57;;;;;;;1.17;1.08;;;24.90;56.60;;;;;;4947691;28;88556;-85
2022/09/08 04:58:23;;;;;;;1.90;1.00;;;24.80;56.70;;;;;;4932384;28;87938;-84
2022/09/08 05:00:49;;;;;;;2.25;1.02;;;24.90;56.60;;;;;;4948318;28;87327;-84
2022/09/08 05:03:15;;;;;;;1.42;1.10;;;24.80;56.90;;;;;;4930451;28;90491;-84
2022/09/08 05:05:41;;;;;;;1.38;0.90;;;24.80;56.70;;;;;;4947330;28;87310;-85
2022/09/08 05:08:07;;;;;;;1.33;1.00;;;24.80;56.90;;;;;;4947612;28;86984;-84
2022/09/08 05:10:33;;;;;;;1.10;1.00;;;24.90;56.80;;;;;;4949056;28;87159;-85
2022/09/08 05:13:00;;;;;;;1.98;1.20;;;24.80;56.70;;;;;;4930113;28;91169;-84
2022/09/08 05:15:26;;;;;;;1.13;0.90;;;24.80;57.40;;;;;;4948825;28;88463;-85
2022/09/08 05:17:52;;;;;;;1.45;1.00;;;24.80;56.80;;;;;;4960074;28;87306;-85
2022/09/08 05:20:18;;;;;;;0.88;0.85;;;24.80;57.00;;;;;;4930303;28;87372;-84
2022/09/08 05:22:44;;;;;;;2.10;0.98;;;24.80;57.00;;;;;;4944754;28;92750;-84
2022/09/08 05:25:09;;;;;;;2.10;1.10;;;24.80;57.00;;;;;;4930576;28;89286;-84
2022/09/08 05:27:35;;;;;;;0.93;0.82;;;24.80;57.10;;;;;;4931206;28;87169;-84
2022/09/08 05:30:00;;;;;;;2.05;1.15;;;24.80;57.00;;;;;;4930468;28;87033;-85
2022/09/08 05:32:26;;;;;;;0.90;0.90;;;24.80;57.10;;;;;;4930072;28;87640;-85
2022/09/08 05:34:52;;;;;;;1.10;0.90;;;24.80;56.90;;;;;;4930999;28;88495;-84
2022/09/08 05:37:17;;;;;;;1.00;0.80;;;24.80;57.00;;;;;;4931966;28;87132;-84
2022/09/08 05:39:43;;;;;;;1.58;1.02;;;24.80;57.00;;;;;;4930543;28;87621;-85
2022/09/08 05:42:08;;;;;;;1.50;1.00;;;24.80;57.00;;;;;;4930481;28;88566;-85
2022/09/08 05:44:34;;;;;;;2.30;0.95;;;24.80;57.00;;;;;;4960878;28;91331;-85
2022/09/08 05:47:00;;;;;;;0.88;0.80;;;24.80;57.00;;;;;;4927888;28;88536;-85
2022/09/08 05:49:25;;;;;;;1.38;0.90;;;24.80;56.90;;;;;;4931072;28;87525;-85
2022/09/08 05:51:52;;;;;;;1.63;1.00;;;24.80;57.00;;;;;;4952913;28;91782;-85
2022/09/08 05:54:19;;;;;;;1.33;0.80;;;24.80;57.00;;;;;;4930926;28;87920;-84
2022/09/08 05:56:45;;;;;;;1.25;1.10;;;24.80;56.90;;;;;;4928644;28;87219;-84
2022/09/08 05:59:11;;;;;;;1.30;1.08;;;24.80;57.00;;;;;;4929427;28;87597;-85
2022/09/08 06:01:37;;;;;;;1.63;1.20;;;24.80;57.10;;;;;;4930870;28;88469;-85
2022/09/08 06:04:08;;;;;;;1.58;1.08;;;24.80;57.10;;;;;;4930406;28;87995;-85
2022/09/08 06:06:34;;;;;;;1.17;1.00;;;24.80;57.00;;;;;;4930284;28;87411;-85
2022/09/08 06:09:00;;;;;;;1.13;0.90;;;24.80;56.90;;;;;;4961175;28;90240;-85
2022/09/08 06:11:28;;;;;;;1.10;1.00;;;24.80;56.80;;;;;;4959633;28;93549;-84
2022/09/08 06:13:55;;;;;;;1.42;1.08;;;24.80;56.90;;;;;;4930593;28;88689;-84
2022/09/08 06:16:21;;;;;;;1.75;0.90;;;24.80;56.90;;;;;;4930222;28;87301;-85
2022/09/08 06:18:47;;;;;;;1.30;0.88;;;24.80;56.60;;;;;;4927582;28;87914;-84
2022/09/08 06:21:15;;;;;;;1.48;1.00;;;24.80;56.70;;;;;;4930489;28;88288;-84
2022/09/08 06:23:41;;;;;;;1.60;0.90;;;24.90;57.30;;;;;;4929901;28;88317;-84
2022/09/08 06:26:31;;;;;;;2.03;1.02;;;24.90;56.70;;;;;;4929102;28;88573;-85
2022/09/08 06:29:13;;;;;;;1.58;1.00;;;25.00;56.60;;;;;;4959947;28;90894;-83
2022/09/08 06:31:53;;;;;;;2.92;1.48;;;25.00;56.60;;;;;;4930633;28;88780;-84
2022/09/08 06:34:23;;;;;;;6.25;1.42;;;25.10;56.00;;;;;;4929678;28;91993;-84
2022/09/08 06:37:03;;;;;;;1.98;1.42;;;25.00;56.10;;;;;;4928173;28;88462;-85
2022/09/08 06:39:43;;;;;;;3.03;1.38;;;25.10;56.30;;;;;;4928315;28;87470;-84
2022/09/08 06:42:36;;;;;;;4.55;1.30;;;25.10;56.20;;;;;;4929369;28;91727;-85
2022/09/08 06:45:04;;;;;;;6.82;1.65;;;25.10;56.10;;;;;;4928933;28;88494;-84
2022/09/08 06:47:43;;;;;;;4.93;1.48;;;25.20;56.40;;;;;;4929553;28;87003;-84
2022/09/08 06:50:12;;;;;;;;;;;25.20;55.90;;;;;;4931007;28;87515;-84
2022/09/08 06:52:58;;;;;;;2.70;1.33;;;25.20;55.90;;;;;;4961548;28;91313;-84
2022/09/08 06:55:39;;;;;;;5.20;1.73;;;25.20;55.50;;;;;;4932877;28;92364;-84
2022/09/08 06:58:41;;;;;;;3.20;1.52;;;25.20;55.30;;;;;;4929463;28;86891;-83
2022/09/08 07:01:10;;;;;;;3.30;1.38;;;25.20;55.20;;;;;;4925523;28;87642;-84
2022/09/08 07:04:03;;;;;;;5.95;1.58;;;25.20;55.20;;;;;;4925391;28;89399;-83
2022/09/08 07:06:35;;;;;;;3.88;1.20;;;25.20;55.00;;;;;;4927472;28;89331;-83
2022/09/08 07:09:26;;;;;;;4.78;1.75;;;25.10;55.00;;;;;;4927611;28;87193;-84
2022/09/08 07:12:25;;;;;;;2.70;1.17;;;25.00;55.00;;;;;;4913850;28;87394;-83
2022/09/08 07:14:58;;;;;;;6.45;1.55;;;25.00;54.90;;;;;;4810797;29;88621;-83
2022/09/08 07:17:49;;;;;;;2.95;1.50;;;24.90;54.60;;;;;;4812167;29;88133;-84
2022/09/08 07:20:15;;;;;;;4.70;1.42;;;24.90;54.50;;;;;;4812426;29;87211;-85
2022/09/08 07:23:01;;;;;;;10.45;2.53;;;24.80;54.50;;;;;;4814824;29;87493;-84
2022/09/08 07:25:40;;;;;;;80.00;14.57;;;24.90;54.50;;;;;;4813720;29;91683;-86
2022/09/08 07:28:05;;;;;;;68.47;13.60;;;24.80;54.30;;;;;;4813295;29;87384;-85
2022/09/08 07:30:34;;;;;;;40.65;10.15;;;24.80;54.60;;;;;;4812032;29;88607;-85
2022/09/08 07:33:36;;;;;;;39.47;9.32;;;24.80;54.70;;;;;;4811080;29;87742;-85
2022/09/08 07:36:12;;;;;;;34.13;8.88;;;24.80;54.60;;;;;;4794789;29;88153;-85
2022/09/08 07:38:51;;;;;;;29.90;7.07;;;24.90;54.60;;;;;;4779517;29;88398;-85
2022/09/08 07:41:40;;;;;;;20.25;5.50;;;24.90;54.50;;;;;;4786365;29;87059;-85
2022/09/08 07:44:13;;;;;;;23.25;6.53;;;24.90;54.40;;;;;;4769302;29;89778;-85
2022/09/08 07:47:02;;;;;;;26.58;7.63;;;25.00;54.40;;;;;;4785788;29;89371;-85
2022/09/08 07:49:33;;;;;;;26.98;7.25;;;25.00;54.40;;;;;;4797358;29;93008;-85
2022/09/08 07:52:11;;;;;;;21.85;6.82;;;25.10;54.10;;;;;;4843987;28;87442;-85
2022/09/08 07:54:58;;;;;;;24.73;6.63;;;25.10;54.20;;;;;;4902244;28;87651;-85
2022/09/08 07:57:51;;;;;;;27.48;6.90;;;25.20;54.10;;;;;;4905395;28;88559;-85
2022/09/08 08:00:18;;;;;;;22.42;6.28;;;25.20;54.10;;;;;;4905407;28;89256;-85
2022/09/08 08:03:15;;;;;;;25.27;6.45;;;25.20;53.90;;;;;;4905958;28;87493;-86
2022/09/08 08:05:45;;;;;;;21.00;6.22;;;25.30;54.00;;;;;;4888234;28;89862;-85
2022/09/08 08:08:38;;;;;;;16.10;5.55;;;25.30;54.00;;;;;;4906642;28;87828;-85
2022/09/08 08:11:22;;;;;;;16.90;5.68;;;25.30;53.90;;;;;;4905360;28;88265;-85
2022/09/08 08:14:07;;;;;;;20.15;5.18;;;25.30;53.90;;;;;;4928783;28;87002;-85
2022/09/08 08:17:01;;;;;;;22.48;6.00;;;25.20;53.90;;;;;;4929082;28;92481;-85
2022/09/08 08:19:45;;;;;;;15.73;5.00;;;25.20;53.70;;;;;;4926896;28;92317;-85
2022/09/08 08:22:14;;;;;;;17.90;4.90;;;25.20;54.00;;;;;;4927452;28;90317;-85
2022/09/08 08:24:58;;;;;;;15.07;4.65;;;25.20;53.80;;;;;;4959546;28;88307;-85
2022/09/08 08:27:41;;;;;;;16.88;5.15;;;25.20;53.90;;;;;;4928471;28;87008;-85
2022/09/08 08:30:24;;;;;;;15.32;4.95;;;25.20;54.00;;;;;;4959763;28;91663;-85
2022/09/08 08:33:08;;;;;;;16.45;4.18;;;25.30;53.90;;;;;;4931933;28;88791;-85
2022/09/08 08:36:04;;;;;;;12.68;4.63;;;25.30;53.80;;;;;;4930973;28;87322;-85
2022/09/08 08:38:33;;;;;;;12.25;3.75;;;25.30;53.80;;;;;;4944175;28;91048;-85
2022/09/08 08:41:00;;;;;;;14.25;3.90;;;25.30;53.60;;;;;;4911937;28;90998;-85
2022/09/08 08:43:35;;;;;;;14.02;3.67;;;25.30;53.60;;;;;;4929395;28;87437;-85
2022/09/08 08:46:24;;;;;;;12.20;4.10;;;25.30;53.50;;;;;;4929214;28;87102;-86
2022/09/08 08:49:18;;;;;;;12.35;3.97;;;25.30;53.30;;;;;;4929159;28;87331;-85
2022/09/08 08:52:13;;;;;;;16.20;4.15;;;25.30;53.40;;;;;;4929294;28;89101;-85
2022/09/08 08:54:58;;;;;;;12.75;3.83;;;25.40;53.20;;;;;;4928253;28;88329;-85
2022/09/08 08:58:04;;;;;;;9.77;3.22;;;25.40;53.20;;;;;;4929373;28;87649;-86
2022/09/08 09:01:08;;;;;;;8.38;2.85;;;25.40;53.00;;;;;;4928414;28;87688;-86
2022/09/08 09:04:05;;;;;;;10.90;3.85;;;25.40;53.00;;;;;;4928488;28;88591;-85
2022/09/08 09:06:48;;;;;;;9.45;3.20;;;25.40;53.00;;;;;;4912110;28;92011;-85
2022/09/08 09:09:41;;;;;;;8.00;2.97;;;25.40;53.00;;;;;;4924448;28;87415;-85
2022/09/08 09:12:16;;;;;;;6.93;2.50;;;25.40;52.80;;;;;;4947324;28;87404;-85
2022/09/08 09:15:21;;;;;;;12.95;3.17;;;25.30;52.80;;;;;;4977263;28;89362;-85
2022/09/08 09:18:01;;;;;;;7.88;3.30;;;25.30;52.80;;;;;;4935273;28;87509;-85
2022/09/08 09:20:58;;;;;;;6.47;2.72;;;25.40;52.90;;;;;;4916641;28;90085;-85
2022/09/08 09:23:58;;;;;;;7.28;2.33;;;25.40;52.80;;;;;;4955569;28;87806;-85
2022/09/08 09:26:28;;;;;;;7.50;3.17;;;25.30;52.70;;;;;;4956683;28;89170;-85
2022/09/08 09:28:55;;;;;;;8.10;3.00;;;25.30;52.80;;;;;;4972519;28;91007;-85
2022/09/08 09:31:49;;;;;;;6.97;2.88;;;25.30;52.80;;;;;;4965571;28;87334;-85
2022/09/08 09:34:24;;;;;;;6.95;2.10;;;25.30;52.80;;;;;;4956529;28;87510;-85
2022/09/08 09:37:02;;;;;;;7.47;2.33;;;25.30;52.70;;;;;;4932205;28;90722;-85
2022/09/08 09:39:49;;;;;;;8.63;2.65;;;25.30;52.60;;;;;;4957589;28;88683;-86
2022/09/08 09:42:47;;;;;;;6.05;2.33;;;25.20;52.50;;;;;;4956528;28;87257;-86
2022/09/08 09:45:30;;;;;;;6.63;2.25;;;25.30;52.80;;;;;;4951399;28;90966;-85
2022/09/08 09:48:03;;;;;;;5.50;2.10;;;25.20;52.50;;;;;;4952589;28;92550;-84
2022/09/08 09:50:45;;;;;;;5.93;1.80;;;25.30;52.70;;;;;;4944882;28;92214;-84
2022/09/08 09:53:34;;;;;;;7.05;2.40;;;25.30;52.40;;;;;;4897869;28;87532;-86
2022/09/08 09:56:15;;;;;;;4.05;1.38;;;25.30;52.50;;;;;;4926129;28;87541;-86
2022/09/08 09:59:02;;;;;;;7.05;1.80;;;25.30;52.20;;;;;;4927326;28;87074;-85
2022/09/08 10:02:06;;;;;;;3.88;2.10;;;25.30;52.00;;;;;;4927379;28;93076;-84
2022/09/08 10:04:58;;;;;;;6.10;2.10;;;25.30;52.00;;;;;;4928503;28;87078;-84
2022/09/08 10:07:24;;;;;;;5.28;1.65;;;25.20;52.10;;;;;;4928009;28;91483;-85
2022/09/08 10:09:58;;;;;;;4.93;1.75;;;25.20;52.70;;;;;;4944862;28;91232;-84
2022/09/08 10:13:09;;;;;;;6.03;1.60;;;25.20;51.80;;;;;;4926951;28;88344;-85
2022/09/08 10:15:57;;;;;;;5.20;1.40;;;25.30;51.80;;;;;;4927759;28;88729;-83
2022/09/08 10:18:31;;;;;;;8.07;1.30;;;25.20;51.40;;;;;;4925237;28;87938;-82
2022/09/08 10:21:02;;;;;;;4.68;1.20;;;25.30;51.90;;;;;;4926891;28;88545;-82
2022/09/08 10:24:03;;;;;;;6.35;1.10;;;25.30;51.10;;;;;;4925659;28;88506;-83
2022/09/08 10:26:37;;;;;;;5.45;1.20;;;25.30;51.50;;;;;;4961414;28;87586;-84
2022/09/08 10:29:29;;;;;;;4.80;1.45;;;25.20;51.60;;;;;;4930460;28;87849;-84
2022/09/08 10:32:16;;;;;;;8.88;1.45;;;25.20;51.50;;;;;;4930220;28;90154;-85
2022/09/08 10:34:54;;;;;;;4.88;1.10;;;25.20;51.50;;;;;;4962358;28;91822;-85
2022/09/08 10:37:42;;;;;;;3.93;1.07;;;25.20;51.70;;;;;;4959744;28;87233;-85
2022/09/08 10:40:31;;;;;;;4.13;1.23;;;25.20;52.70;;;;;;4960625;28;90713;-86
2022/09/08 10:43:02;;;;;;;;;;;25.20;52.40;;;;;;4959720;28;93332;-84
2022/09/08 10:45:56;;;;;;;6.25;1.20;;;25.20;52.50;;;;;;4963339;28;92298;-86
2022/09/08 10:48:40;;;;;;;4.80;1.40;;;25.20;52.60;;;;;;4929150;28;87313;-86
2022/09/08 10:51:36;;;;;;;6.10;1.48;;;25.20;52.20;;;;;;4959681;28;89955;-88
2022/09/08 10:54:20;;;;;;;5.75;1.83;;;25.30;52.60;;;;;;4928024;28;88874;-86
2022/09/08 10:56:47;;;;;;;7.32;1.73;;;25.30;52.40;;;;;;4922684;28;87655;-85
2022/09/08 10:59:18;;;;;;;9.82;2.00;;;25.30;52.60;;;;;;4930254;28;87336;-86
2022/09/08 11:02:28;;;;;;;11.00;1.95;;;25.30;52.30;;;;;;4930269;28;86536;-88
2022/09/08 11:05:30;;;;;;;12.77;1.90;;;25.30;52.10;;;;;;4964967;28;92652;-86
2022/09/08 11:08:23;;;;;;;9.35;1.83;;;25.20;52.30;;;;;;4965329;28;88192;-85
2022/09/08 11:11:05;;;;;;;7.82;1.55;;;25.20;52.30;;;;;;4965344;28;88080;-85
2022/09/08 11:13:36;;;;;;;9.05;1.52;;;25.20;52.00;;;;;;4947591;28;95114;-85
2022/09/08 11:16:15;;;;;;;12.70;1.80;;;25.10;51.70;;;;;;4965026;28;88025;-86
2022/09/08 11:18:43;;;;;;;10.45;1.80;;;25.20;51.50;;;;;;4963554;28;88357;-86
2022/09/08 11:21:28;;;;;;;8.18;1.73;;;25.20;51.70;;;;;;4948338;28;87657;-85
2022/09/08 11:24:14;;;;;;;8.68;1.88;;;25.30;51.80;;;;;;4961576;28;89067;-86
2022/09/08 11:27:11;;;;;;;5.45;1.80;;;25.30;51.40;;;;;;4943304;28;91572;-86
2022/09/08 11:29:38;;;;;;;6.25;1.48;;;25.30;52.00;;;;;;4960950;28;88340;-88
2022/09/08 11:32:35;;;;;;;5.85;1.17;;;25.20;52.30;;;;;;4964359;28;87917;-85
2022/09/08 11:35:07;;;;;;;8.13;1.73;;;25.20;53.10;;;;;;4947201;28;89343;-87
2022/09/08 11:38:02;;;;;;;9.93;1.95;;;25.10;53.40;;;;;;4953768;28;92979;-86
2022/09/08 11:40:41;;;;;;;11.35;2.47;;;25.10;54.40;;;;;;4955685;28;93763;-86
2022/09/08 11:43:27;;;;;;;9.05;1.88;;;25.10;54.50;;;;;;4949107;28;87961;-84
2022/09/08 11:46:17;;;;;;;12.43;2.05;;;25.00;55.50;;;;;;4928032;28;87863;-87
2022/09/08 11:49:04;;;;;;;12.88;2.17;;;25.00;56.90;;;;;;4960154;28;92020;-86
2022/09/08 11:51:50;;;;;;;7.95;2.13;;;25.00;57.70;;;;;;4958015;28;92071;-86
2022/09/08 11:54:48;;;;;;;18.65;9.18;;;25.20;58.40;;;;;;4928137;28;87639;-87
2022/09/08 11:57:30;;;;;;;23.48;10.68;;;25.20;57.20;;;;;;4929699;28;86402;-86
2022/09/08 12:00:05;;;;;;;30.42;16.90;;;25.10;59.00;;;;;;4927897;28;87718;-87
2022/09/08 12:03:25;;;;;;;14.93;7.40;;;25.10;59.00;;;;;;4960144;28;90676;-87
2022/09/08 12:06:03;;;;;;;210.32;121.97;;;25.10;58.90;;;;;;4899150;28;93333;-88
2022/09/08 12:08:52;;;;;;;30.23;16.33;;;25.10;59.20;;;;;;4927958;28;88380;-87
2022/09/08 12:11:41;;;;;;;72.63;45.95;;;25.20;61.80;;;;;;4927914;28;88080;-88
2022/09/08 12:14:10;;;;;;;;;;;25.20;58.70;;;;;;4914566;28;91619;-86
2022/09/08 12:16:44;;;;;;;585.47;388.60;;;25.20;58.80;;;;;;4930856;28;87401;-86
2022/09/08 12:19:24;;;;;;;468.75;302.42;;;25.30;58.70;;;;;;4903860;28;87840;-86
2022/09/08 12:22:18;;;;;;;276.05;162.48;;;25.20;58.40;;;;;;4905562;28;89032;-85
2022/09/08 12:25:12;;;;;;;317.20;192.00;;;25.30;58.20;;;;;;4905189;28;87951;-87
2022/09/08 12:28:16;;;;;;;91.95;51.90;;;25.30;58.50;;;;;;4869094;28;88112;-86
2022/09/08 12:30:44;;;;;;;142.52;80.47;;;25.30;56.70;;;;;;4865915;28;89375;-85
2022/09/08 12:33:31;;;;;;;275.85;162.10;;;25.40;56.80;;;;;;4865785;28;88277;-87
2022/09/08 12:36:05;;;;;;;224.38;128.05;;;25.50;58.50;;;;;;4866377;28;89588;-84
2022/09/08 12:38:59;;;;;;;175.43;105.10;;;25.50;57.90;;;;;;4851581;28;89695;-85
2022/09/08 12:41:45;;;;;;;88.75;51.90;;;25.40;56.30;;;;;;4870168;28;87635;-85
2022/09/08 12:44:29;;;;;;;179.48;100.15;;;25.30;55.00;;;;;;4859087;28;90658;-83
2022/09/08 12:47:24;;;;;;;144.95;82.75;;;25.40;56.50;;;;;;4881326;28;92125;-83
2022/09/08 12:50:16;;;;;;;136.68;81.05;;;25.60;56.10;;;;;;4868590;28;87793;-83
2022/09/08 12:52:59;;;;;;;142.35;88.07;;;25.80;55.40;;;;;;4869019;28;91838;-82
2022/09/08 12:55:48;;;;;;;120.43;72.28;;;25.80;55.10;;;;;;4882409;28;95699;-82
2022/09/08 12:58:22;;;;;;;124.32;77.05;;;25.90;54.50;;;;;;4906748;28;90562;-84
2022/09/08 13:00:58;;;;;;;120.70;74.38;;;26.00;53.80;;;;;;4891133;28;88357;-84
2022/09/08 13:03:32;;;;;;;121.32;77.63;;;26.00;53.40;;;;;;4890208;28;87504;-83
2022/09/08 13:06:06;;;;;;;124.93;79.07;;;26.00;53.40;;;;;;4907941;28;88241;-80
2022/09/08 13:08:48;;;;;;;136.43;85.57;;;25.90;53.10;;;;;;4910902;28;89942;-80
2022/09/08 13:11:46;;;;;;;131.88;86.18;;;25.90;53.50;;;;;;4910066;28;87983;-80
2022/09/08 13:14:14;;;;;;;132.05;82.43;;;25.80;53.30;;;;;;4930361;28;90613;-83
2022/09/08 13:17:14;;;;;;;138.10;83.73;;;25.80;53.40;;;;;;4929508;28;89302;-84
2022/09/08 13:20:25;;;;;;;164.68;100.63;;;25.60;54.30;;;;;;4928205;28;92957;-84
2022/09/08 13:23:15;;;;;;;172.07;104.90;;;25.50;56.70;;;;;;4904028;28;87956;-84
2022/09/08 13:26:01;;;;;;;185.80;116.70;;;25.50;58.20;;;;;;4904124;28;87627;-84
2022/09/08 13:28:55;;;;;;;189.95;118.07;;;25.40;59.10;;;;;;4903515;28;93775;-85
2022/09/08 13:31:40;;;;;;;183.80;115.68;;;25.30;59.70;;;;;;4923502;28;95679;-85
2022/09/08 13:34:11;;;;;;;228.88;141.77;;;25.20;60.70;;;;;;4904507;28;88213;-85